Time;durP1;ratioP1;P1;durP2;ratioP2;P2;SDS_P1;SDS_P2;PMS_P1;PMS_P2;Temp;Humidity;BMP_temperature;BMP_pressure;BME280_temperature;BME280_humidity;BME280_pressure;Samples;Min_cycle;Max_cycle;Signal;HPM_P1;HPM_P2
2021/08/05 00:02:05;;;;;;;0.70;0.60;;;;;;;16.71;100.00;81766.88;5040937;28;20451;-72
2021/08/05 00:04:33;;;;;;;1.20;1.10;;;;;;;16.62;100.00;81420.34;5056095;28;20482;-72
2021/08/05 00:07:01;;;;;;;0.80;0.70;;;;;;;16.54;100.00;81409.03;5037615;28;20448;-72
2021/08/05 00:09:29;;;;;;;1.13;1.03;;;;;;;16.59;100.00;81416.09;5055170;28;20462;-72
2021/08/05 00:11:56;;;;;;;0.90;0.90;;;;;;;16.65;100.00;81090.84;5042673;28;20805;-72
2021/08/05 00:14:24;;;;;;;0.70;0.60;;;;;;;16.65;100.00;81090.84;5036803;28;20549;-73
2021/08/05 00:16:55;;;;;;;1.93;1.83;;;;;;;16.66;100.00;81759.78;5014530;28;20453;-73
2021/08/05 00:19:23;;;;;;;0.70;0.60;;;;;;;16.73;100.00;82103.59;5053731;28;20869;-72
2021/08/05 00:21:51;;;;;;;1.20;1.10;;;;;;;16.71;100.00;82100.72;5026607;28;20479;-72
2021/08/05 00:24:19;;;;;;;0.80;0.70;;;;;;;16.70;100.00;82099.31;5034979;28;20442;-73
2021/08/05 00:26:47;;;;;;;0.70;0.60;;;;;;;16.66;100.00;81759.78;5036686;28;20437;-72
2021/08/05 00:29:15;;;;;;;0.80;0.70;;;;;;;16.67;100.00;81427.41;5034221;28;20465;-73
2021/08/05 00:31:42;;;;;;;0.80;0.70;;;;;;;16.69;100.00;81096.47;5034365;28;20510;-73
2021/08/05 00:34:32;;;;;;;0.80;0.70;;;;;;;16.70;100.00;81097.88;5034248;28;20470;-73
2021/08/05 00:37:01;;;;;;;0.80;0.70;;;;;;;16.74;100.00;81437.34;5017186;28;20438;-73
2021/08/05 00:39:29;;;;;;;0.70;0.60;;;;;;;16.70;100.00;81097.88;5033664;28;20457;-73
2021/08/05 00:41:57;;;;;;;0.70;0.70;;;;;;;16.72;100.00;81100.69;5017514;28;20966;-72
2021/08/05 00:44:24;;;;;;;2.50;0.93;;;;;;;16.71;100.00;80765.50;5034032;28;20894;-72
2021/08/05 00:46:52;;;;;;;0.80;0.70;;;;;;;16.73;100.00;80768.31;5017236;28;20439;-73
2021/08/05 00:49:19;;;;;;;0.80;0.70;;;;;;;16.74;100.00;80769.75;5033830;28;20798;-73
2021/08/05 00:51:48;;;;;;;0.80;0.70;;;;;;;16.75;100.00;80771.16;5045310;28;20426;-73
2021/08/05 00:54:16;;;;;;;0.80;0.70;;;;;;;16.72;100.00;80766.25;5036026;28;20566;-72
2021/08/05 00:56:43;;;;;;;0.70;0.70;;;;;;;16.67;100.00;80426.19;5053190;28;20447;-73
2021/08/05 00:59:12;;;;;;;0.70;0.70;;;;;;;16.58;100.00;80080.00;5036990;28;20845;-73
2021/08/05 01:01:44;;;;;;;0.70;0.60;;;;;;;16.57;100.00;80079.31;5036797;28;20446;-73
2021/08/05 01:04:14;;;;;;;0.70;0.67;;;;;;;16.53;100.00;79739.47;5053034;28;20952;-72
2021/08/05 01:07:03;;;;;;;0.70;0.67;;;;;;;16.53;100.00;79406.66;5036739;28;20447;-73
2021/08/05 01:09:36;;;;;;;0.73;0.70;;;;;;;16.51;100.00;78736.94;5035681;28;20477;-73
2021/08/05 01:12:09;;;;;;;0.70;0.60;;;;;;;16.46;100.00;78396.00;5046683;28;20443;-73
2021/08/05 01:14:39;;;;;;;0.80;0.80;;;;;;;16.36;100.00;77717.16;5033024;28;21014;-72
2021/08/05 01:17:10;;;;;;;1.03;0.93;;;;;;;16.31;100.00;76710.16;5033155;28;20512;-72
2021/08/05 01:19:42;;;;;;;0.70;0.60;;;;;;;16.31;100.00;76044.63;5033031;28;20439;-73
2021/08/05 01:22:16;;;;;;;0.70;0.60;;;;;;;16.28;100.00;75041.63;5038343;28;20444;-73
2021/08/05 01:24:52;;;;;;;0.70;0.70;;;;;;;16.29;100.00;74043.56;5033187;28;20443;-72
2021/08/05 01:27:44;;;;;;;0.73;0.70;;;;;;;16.30;100.00;72714.25;5033008;28;20773;-72
2021/08/05 01:30:13;;;;;;;0.70;0.63;;;;;;;16.26;100.00;72043.19;5016274;28;20923;-73
2021/08/05 01:32:43;;;;;;;0.70;0.70;;;;;;;16.22;100.00;71041.03;5034022;28;20456;-73
2021/08/05 01:35:11;;;;;;;0.80;0.80;;;;;;;16.24;100.00;69713.59;5016415;28;20463;-73
2021/08/05 01:37:43;;;;;;;0.73;0.70;;;;;;;16.28;100.00;68388.97;5016231;28;20820;-73
2021/08/05 01:40:12;;;;;;;0.80;0.70;;;;;;;16.31;100.00;67727.97;5036582;28;20622;-72
2021/08/05 01:42:41;;;;;;;0.70;0.70;;;;;;;16.31;100.00;66067.06;5053719;28;20429;-73
2021/08/05 01:45:10;;;;;;;0.70;0.70;;;;;;;16.34;100.00;64410.34;5052328;28;20790;-73
2021/08/05 01:47:42;;;;;;;0.80;0.70;;;;;;;16.38;100.00;63086.66;5035918;28;20425;-72
2021/08/05 01:50:12;;;;;;;0.80;0.80;;;;;;;16.35;100.00;60761.88;5052433;28;20479;-73
2021/08/05 01:52:41;;;;;;;0.80;0.70;;;;;;;16.33;100.00;59101.63;5034111;28;20816;-73
2021/08/05 01:55:09;;;;;;;0.70;0.70;;;;;;;16.28;100.00;57771.59;5024487;28;20466;-73
2021/08/05 01:57:36;;;;;;;0.70;0.70;;;;;;;16.28;100.00;56446.25;5052427;28;20961;-73
2021/08/05 02:00:05;;;;;;;0.70;0.67;;;;;;;16.25;100.00;55119.47;5052334;28;20434;-73
2021/08/05 02:02:39;;;;;;;0.80;0.70;;;;;;;16.30;100.00;53800.50;5053378;28;20402;-73
2021/08/05 02:05:14;;;;;;;0.70;0.70;;;;;;;16.33;100.00;52479.50;5051809;28;20515;-73
2021/08/05 02:07:48;;;;;;;1.77;1.67;;;;;;;16.36;100.00;51490.50;5051252;28;20431;-72
2021/08/05 02:10:20;;;;;;;0.70;0.70;;;;;;;16.36;100.00;50498.09;5035833;28;20450;-73
2021/08/05 02:12:52;;;;;;;0.70;0.60;;;;;;;16.31;100.00;49501.97;5034231;28;20586;-73
2021/08/05 02:15:20;;;;;;;0.80;0.80;;;;;;;16.30;100.00;48510.25;5034049;28;20473;-72
2021/08/05 02:17:49;;;;;;;0.70;0.60;;;;;;;16.30;100.00;47188.56;5031925;28;20534;-73
2021/08/05 02:20:17;;;;;;;0.70;0.70;;;;;;;16.31;100.00;46528.97;5015082;28;20967;-73
2021/08/05 02:22:46;;;;;;;0.70;0.70;;;;;;;16.35;100.00;45542.22;5049892;28;20559;-73
2021/08/05 02:25:13;;;;;;;0.70;0.70;;;;;;;16.32;100.00;44549.63;5051792;28;20438;-72
2021/08/05 02:27:45;;;;;;;0.80;0.80;;;;;;;16.41;100.00;43566.81;5051998;28;20479;-73
2021/08/05 02:30:15;;;;;;;0.70;0.60;;;;;;;16.38;100.00;42904.63;5030584;28;20940;-73
2021/08/05 02:32:44;;;;;;;0.70;0.70;;;;;;;16.57;100.00;42258.69;5031894;28;20448;-73
2021/08/05 02:35:15;;;;;;;0.70;0.60;;;;;;;16.74;100.00;42601.72;5033336;28;20474;-73
2021/08/05 02:37:43;;;;;;;0.70;0.70;;;;;;;16.95;100.00;42947.28;5049689;28;20476;-73
2021/08/05 02:40:12;;;;;;;0.80;0.70;;;;;;;17.00;100.00;43611.59;5034964;28;20816;-72
2021/08/05 02:42:40;;;;;;;0.70;0.70;;;;;;;17.06;100.00;44277.00;5032021;28;20432;-72
2021/08/05 02:45:08;;;;;;;0.70;0.60;;;;;;;17.06;100.00;44937.78;5032588;28;20426;-73
2021/08/05 02:47:35;;;;;;;0.80;0.70;;;;;;;17.01;100.00;45264.16;5031870;28;20508;-73
2021/08/05 02:50:04;;;;;;;0.80;0.80;;;;;;;16.95;100.00;45920.16;5033090;28;20463;-73
2021/08/05 02:52:33;;;;;;;0.80;0.70;;;;;;;16.92;100.00;46579.06;5047960;28;20800;-73
2021/08/05 02:55:05;;;;;;;0.70;0.70;;;;;;;16.84;100.00;46903.31;5053168;28;20500;-73
2021/08/05 02:57:33;;;;;;;0.70;0.70;;;;;;;16.71;100.00;47222.81;5051270;28;20827;-73
2021/08/05 03:00:00;;;;;;;0.70;0.60;;;;;;;16.68;100.00;47550.75;5052467;28;20414;-73
2021/08/05 03:02:28;;;;;;;1.63;1.53;;;;;;;16.62;100.00;47545.66;5051420;28;20982;-73
2021/08/05 03:04:57;;;;;;;0.70;0.60;;;;;;;16.60;100.00;47874.41;5035423;28;20428;-73
2021/08/05 03:07:26;;;;;;;0.80;0.70;;;;;;;16.51;100.00;47866.69;5052717;28;20425;-73
2021/08/05 03:09:55;;;;;;;0.80;0.70;;;;;;;16.48;100.00;48194.97;5051239;28;20438;-73
2021/08/05 03:12:23;;;;;;;0.80;0.70;;;;;;;16.52;100.00;48528.91;5043930;28;20426;-73
2021/08/05 03:14:51;;;;;;;0.80;0.80;;;;;;;16.52;100.00;48198.00;5032424;28;20479;-73
2021/08/05 03:17:19;;;;;;;0.70;0.70;;;;;;;16.59;100.00;48204.03;5031194;28;20466;-73
2021/08/05 03:19:48;;;;;;;0.80;0.70;;;;;;;16.57;100.00;47541.38;4999248;28;20738;-72
2021/08/05 03:22:16;;;;;;;0.70;0.70;;;;;;;16.56;100.00;47210.53;5046167;28;20533;-73
2021/08/05 03:24:44;;;;;;;0.70;0.70;;;;;;;16.56;100.00;46879.75;5051398;28;20533;-73
2021/08/05 03:27:13;;;;;;;0.80;0.80;;;;;;;16.55;100.00;46218.28;5052160;28;20440;-73
2021/08/05 03:29:42;;;;;;;0.80;0.77;;;;;;;16.51;100.00;45554.50;5052600;28;20427;-73
2021/08/05 03:32:09;;;;;;;0.70;0.70;;;;;;;16.53;100.00;44895.78;5053190;28;20435;-73
2021/08/05 03:34:38;;;;;;;0.90;0.90;;;;;;;16.51;100.00;44564.03;5056129;28;20463;-73
2021/08/05 03:37:06;;;;;;;0.80;0.80;;;;;;;16.49;100.00;44232.38;5056085;28;20434;-73
2021/08/05 03:39:34;;;;;;;0.80;0.70;;;;;;;16.46;100.00;43570.34;5051605;28;20472;-73
2021/08/05 03:42:03;;;;;;;0.70;0.60;;;;;;;16.49;100.00;42912.38;5049254;28;20489;-73
2021/08/05 03:44:33;;;;;;;0.70;0.60;;;;;;;16.56;100.00;42587.84;5035108;28;20412;-73
2021/08/05 03:47:01;;;;;;;0.70;0.70;;;;;;;16.54;100.00;42256.78;5034318;28;20431;-73
2021/08/05 03:49:29;;;;;;;0.70;0.70;;;;;;;16.50;100.00;41594.06;5034952;28;20513;-73
2021/08/05 03:51:56;;;;;;;0.80;0.70;;;;;;;16.50;100.00;40604.41;5046167;28;20467;-73
2021/08/05 03:54:24;;;;;;;0.77;0.77;;;;;;;16.50;100.00;40274.72;5055582;28;21015;-73
2021/08/05 03:56:52;;;;;;;0.70;0.70;;;;;;;16.52;100.00;39946.50;5054493;28;20997;-73
2021/08/05 03:59:20;;;;;;;0.77;0.70;;;;;;;16.53;100.00;39288.34;5038380;28;20500;-73
2021/08/05 04:01:49;;;;;;;0.80;0.80;;;;;;;16.58;100.00;38961.94;5055076;28;20445;-73
2021/08/05 04:04:17;;;;;;;0.70;0.70;;;;;;;16.59;100.00;38962.66;5054718;28;20428;-73
2021/08/05 04:06:45;;;;;;;0.70;0.70;;;;;;;16.51;100.00;38297.94;5037567;28;20454;-72
2021/08/05 04:09:12;;;;;;;0.70;0.60;;;;;;;16.49;100.00;37637.97;5049194;28;20473;-72
2021/08/05 04:11:40;;;;;;;0.70;0.70;;;;;;;16.50;100.00;37309.28;5051676;28;20441;-73
2021/08/05 04:14:08;;;;;;;0.70;0.60;;;;;;;16.50;100.00;36979.91;5035638;28;20463;-73
2021/08/05 04:16:36;;;;;;;0.77;0.70;;;;;;;16.53;100.00;36981.59;5035034;28;20834;-73
2021/08/05 04:19:05;;;;;;;0.70;0.60;;;;;;;16.54;100.00;36982.28;5034071;28;20904;-73
2021/08/05 04:21:33;;;;;;;0.70;0.60;;;;;;;16.58;100.00;36985.31;5042514;28;20444;-73
2021/08/05 04:24:01;;;;;;;0.70;0.60;;;;;;;16.64;100.00;36659.63;5037599;28;20549;-72
2021/08/05 04:26:29;;;;;;;0.70;0.63;;;;;;;16.69;100.00;36961.53;5055143;28;20421;-73
2021/08/05 04:28:57;;;;;;;0.70;0.60;;;;;;;16.75;100.00;36996.47;5053660;28;20519;-73
2021/08/05 04:31:24;;;;;;;0.70;0.70;;;;;;;16.77;100.00;36997.84;5055093;28;20407;-72
2021/08/05 04:33:53;;;;;;;0.70;0.70;;;;;;;16.79;100.00;37328.72;5050890;28;20526;-73
2021/08/05 04:36:22;;;;;;;0.70;0.60;;;;;;;16.84;100.00;37661.72;5053926;28;20486;-73
2021/08/05 04:38:50;;;;;;;0.70;0.70;;;;;;;16.88;100.00;37664.47;5053439;28;20493;-74
2021/08/05 04:41:19;;;;;;;0.80;0.70;;;;;;;16.95;100.00;38328.31;5053830;28;20814;-74
2021/08/05 04:43:46;;;;;;;0.70;0.70;;;;;;;17.01;100.00;38661.94;5016348;28;20536;-73
2021/08/05 04:46:15;;;;;;;0.73;0.73;;;;;;;17.05;100.00;38994.59;5017208;28;20755;-74
2021/08/05 04:48:44;;;;;;;0.80;0.70;;;;;;;17.08;100.00;38997.06;5034228;28;20847;-73
2021/08/05 04:51:12;;;;;;;0.70;0.67;;;;;;;17.15;100.00;39661.53;5039263;28;20449;-73
2021/08/05 04:53:41;;;;;;;0.80;0.70;;;;;;;17.20;100.00;40324.81;5053315;28;20487;-74
2021/08/05 04:56:09;;;;;;;0.70;0.60;;;;;;;17.26;100.00;40659.31;5054938;28;20953;-73
2021/08/05 04:58:36;;;;;;;0.70;0.60;;;;;;;17.30;100.00;41322.97;5054741;28;20848;-73
2021/08/05 05:01:05;;;;;;;0.70;0.70;;;;;;;17.35;100.00;41656.97;5054282;28;20486;-73
2021/08/05 05:03:36;;;;;;;0.80;0.73;;;;;;;17.37;100.00;42319.06;5053001;28;20760;-73
2021/08/05 05:06:04;;;;;;;0.70;0.70;;;;;;;17.53;100.00;42991.84;5037065;28;20508;-73
2021/08/05 05:08:32;;;;;;;0.80;0.77;;;;;;;17.58;100.00;43325.88;5053044;28;20445;-73
2021/08/05 05:11:01;;;;;;;0.70;0.63;;;;;;;17.53;100.00;43652.88;5053059;28;20453;-73
2021/08/05 05:13:30;;;;;;;0.73;0.70;;;;;;;17.62;100.00;44320.84;5035556;28;20845;-73
2021/08/05 05:15:59;;;;;;;0.80;0.80;;;;;;;17.69;100.00;44987.88;5034107;28;20794;-73
2021/08/05 05:18:27;;;;;;;0.70;0.60;;;;;;;17.79;100.00;45657.72;5033020;28;20426;-73
2021/08/05 05:20:54;;;;;;;0.70;0.60;;;;;;;17.90;100.00;46658.88;5037362;28;20551;-73
2021/08/05 05:23:22;;;;;;;0.70;0.60;;;;;;;17.85;100.00;47317.63;5037901;28;20483;-73
2021/08/05 05:25:50;;;;;;;0.70;0.70;;;;;;;17.92;100.00;47985.00;5034343;28;20467;-73
2021/08/05 05:28:19;;;;;;;0.70;0.70;;;;;;;17.79;100.00;48305.84;5033196;28;20520;-73
2021/08/05 05:30:48;;;;;;;0.73;0.70;;;;;;;17.78;100.00;48967.34;5036293;28;20429;-73
2021/08/05 05:33:17;;;;;;;0.70;0.60;;;;;;;17.80;100.00;49631.59;5033078;28;20522;-73
2021/08/05 05:35:44;;;;;;;0.70;0.60;;;;;;;17.78;100.00;50292.44;5032924;28;20462;-73
2021/08/05 05:38:13;;;;;;;0.70;0.70;;;;;;;17.84;100.00;50960.63;5033398;28;20453;-73
2021/08/05 05:40:42;;;;;;;0.70;0.70;;;;;;;17.88;100.00;51294.81;5034092;28;20427;-73
2021/08/05 05:43:11;;;;;;;0.70;0.70;;;;;;;17.86;100.00;51956.94;5049158;28;20998;-73
2021/08/05 05:45:40;;;;;;;0.70;0.70;;;;;;;17.84;100.00;52286.16;5052280;28;20515;-73
2021/08/05 05:48:09;;;;;;;0.70;0.70;;;;;;;17.91;100.00;52623.81;5033253;28;20497;-73
2021/08/05 05:50:38;;;;;;;0.70;0.70;;;;;;;18.04;100.00;53299.44;5036163;28;20539;-73
2021/08/05 05:53:06;;;;;;;0.80;0.70;;;;;;;18.23;100.00;53317.41;5052001;28;20508;-73
2021/08/05 05:55:34;;;;;;;0.70;0.60;;;;;;;18.26;100.00;52987.91;5053218;28;20467;-73
2021/08/05 05:58:03;;;;;;;0.80;0.70;;;;;;;18.50;100.00;53010.00;5052358;28;20873;-74
2021/08/05 06:00:30;;;;;;;0.80;0.70;;;;;;;18.58;100.00;52353.53;5051816;28;20465;-73
2021/08/05 06:03:01;;;;;;;0.70;0.60;;;;;;;18.77;100.00;49383.94;5039549;28;20544;-74
2021/08/05 06:05:29;;;;;;;0.70;0.70;;;;;;;18.84;100.00;44084.91;5048026;28;20442;-73
2021/08/05 06:07:57;;;;;;;0.70;0.70;;;;;;;18.88;100.00;37747.44;5053592;28;20994;-73
2021/08/05 06:10:25;;;;;;;0.90;0.90;;;;;;;18.81;100.00;29234.41;5051841;28;21013;-73
2021/08/05 06:12:52;;;;;;;0.70;0.60;;;;;;;19.00;100.00;21950.50;5038950;28;20474;-73
2021/08/05 06:15:21;;;;;;;0.80;0.70;;;;;;;19.09;100.00;12148.47;4999341;28;20494;-73
2021/08/05 06:17:50;;;;;;;0.70;0.70;;;;;;;19.04;100.00;538.44;5032967;28;20801;-73
2021/08/05 06:20:20;;;;;;;0.80;0.80;;;;;;;18.97;100.00;-10206.19;4999891;28;20471;-73
2021/08/05 06:22:49;;;;;;;0.70;0.70;;;;;;;19.09;100.00;-16637.53;5051874;28;20448;-73
2021/08/05 06:25:17;;;;;;;0.80;0.80;;;;;;;19.13;100.00;-21173.06;5051473;28;20418;-73
2021/08/05 06:27:46;;;;;;;0.80;0.80;;;;;;;19.16;100.00;-21201.19;5035570;28;20934;-73
2021/08/05 06:30:17;;;;;;;0.70;0.60;;;;;;;19.27;100.00;-21204.19;5053104;28;20892;-73
2021/08/05 06:32:45;;;;;;;0.80;0.80;;;;;;;19.35;100.00;-21206.25;5043953;28;20441;-74
2021/08/05 06:35:13;;;;;;;0.80;0.70;;;;;;;19.34;100.00;-21205.84;5015776;28;20483;-73
2021/08/05 06:37:43;;;;;;;0.77;0.70;;;;;;;19.47;100.00;-21209.41;5032725;28;20900;-73
2021/08/05 06:40:14;;;;;;;0.70;0.70;;;;;;;19.48;100.00;-21209.66;5031832;28;20410;-73
2021/08/05 06:42:43;;;;;;;0.70;0.60;;;;;;;19.42;100.00;-21208.03;5027118;28;20456;-74
2021/08/05 06:45:12;;;;;;;0.80;0.70;;;;;;;19.57;100.00;-21212.13;5051885;28;20432;-74
2021/08/05 06:47:43;;;;;;;0.70;0.63;;;;;;;19.76;100.00;-21217.31;5053189;28;20432;-74
2021/08/05 06:50:12;;;;;;;0.70;0.70;;;;;;;19.95;100.00;-21222.25;5051807;28;20444;-73
2021/08/05 06:52:41;;;;;;;0.80;0.80;;;;;;;19.74;100.00;-21216.78;5051224;28;20835;-74
2021/08/05 06:55:10;;;;;;;0.80;0.70;;;;;;;19.76;100.00;-21217.31;5035308;28;20906;-74
2021/08/05 06:57:39;;;;;;;0.80;0.70;;;;;;;19.85;100.00;-21219.53;5051751;28;20799;-74
2021/08/05 07:00:09;;;;;;;0.80;0.70;;;;;;;20.01;100.00;-21224.03;5053175;28;20390;-74
2021/08/05 07:02:38;;;;;;;0.70;0.60;;;;;;;19.91;100.00;-21221.16;5037142;28;20457;-74
2021/08/05 07:05:09;;;;;;;0.70;0.70;;;;;;;19.96;100.00;-21222.53;5015516;28;20436;-74
2021/08/05 07:07:38;;;;;;;0.70;0.70;;;;;;;20.25;100.00;-21230.44;5033586;28;20500;-74
2021/08/05 07:10:08;;;;;;;0.70;0.60;;;;;;;20.19;100.00;-21228.81;5035425;28;20439;-74
2021/08/05 07:12:39;;;;;;;0.80;0.80;;;;;;;20.38;100.00;-21233.72;5046249;28;20816;-74
2021/08/05 07:15:07;;;;;;;0.90;0.90;;;;;;;20.47;100.00;-21236.19;5054830;28;20468;-75
2021/08/05 07:17:37;;;;;;;0.70;0.60;;;;;;;20.59;100.00;-21239.47;5055253;28;20424;-74
2021/08/05 07:20:08;;;;;;;0.80;0.80;;;;;;;20.70;100.00;-21242.47;5039275;28;20410;-74
2021/08/05 07:22:38;;;;;;;0.80;0.73;;;;;;;20.65;100.00;-21241.09;5056308;28;20435;-74
2021/08/05 07:25:11;;;;;;;0.70;0.60;;;;;;;20.41;100.00;-21234.53;5038522;28;20414;-74
2021/08/05 07:27:39;;;;;;;0.70;0.63;;;;;;;20.49;100.00;-21236.88;5055300;28;20459;-74
2021/08/05 07:30:09;;;;;;;0.70;0.60;;;;;;;20.36;100.00;-21233.31;5055015;28;20431;-75
2021/08/05 07:32:38;;;;;;;0.80;0.70;;;;;;;20.35;100.00;-21232.91;5055028;28;20435;-74
2021/08/05 07:35:06;;;;;;;0.80;0.80;;;;;;;20.26;100.00;-21230.72;5038449;28;20463;-74
2021/08/05 07:37:35;;;;;;;0.70;0.60;;;;;;;20.22;100.00;-21229.50;5055138;28;20425;-74
2021/08/05 07:40:03;;;;;;;0.70;0.60;;;;;;;20.04;100.00;-21224.72;5051505;28;20792;-74
2021/08/05 07:42:31;;;;;;;0.70;0.60;;;;;;;19.99;100.00;-21223.34;5044918;28;20845;-75
2021/08/05 07:44:59;;;;;;;0.70;0.60;;;;;;;19.98;100.00;-21223.06;5035040;28;20427;-74
2021/08/05 07:47:28;;;;;;;0.80;0.70;;;;;;;19.94;100.00;-21221.97;5034924;28;20506;-74
2021/08/05 07:49:56;;;;;;;0.80;0.70;;;;;;;20.00;100.00;-21223.63;5034678;28;20489;-74
2021/08/05 07:52:23;;;;;;;0.80;0.70;;;;;;;20.24;100.00;-21230.16;5049327;28;20781;-74
2021/08/05 07:54:51;;;;;;;0.80;0.73;;;;;;;20.14;100.00;-21227.44;5055717;28;20436;-75
2021/08/05 07:57:20;;;;;;;0.80;0.70;;;;;;;20.45;100.00;-21235.63;5053943;28;20536;-73
2021/08/05 07:59:50;;;;;;;0.77;0.67;;;;;;;20.53;100.00;-21237.69;5038199;28;20456;-74
2021/08/05 08:02:18;;;;;;;0.80;0.70;;;;;;;20.65;100.00;-21240.97;5025838;28;20440;-73
2021/08/05 08:04:46;;;;;;;0.70;0.60;;;;;;;20.79;100.00;-21244.66;5036033;28;20927;-73
2021/08/05 08:07:14;;;;;;;0.70;0.60;;;;;;;20.84;100.00;-21246.00;5051469;28;20498;-74
2021/08/05 08:09:42;;;;;;;0.80;0.70;;;;;;;20.91;100.00;-21248.06;5053847;28;20476;-74
2021/08/05 08:12:10;;;;;;;0.70;0.60;;;;;;;21.18;100.00;-21255.16;5055769;28;20428;-73
2021/08/05 08:14:38;;;;;;;0.70;0.60;;;;;;;21.51;100.00;-21264.03;5037974;28;20829;-73
2021/08/05 08:17:07;;;;;;;0.70;0.60;;;;;;;21.32;100.00;-21258.84;5054247;28;20463;-74
2021/08/05 08:19:35;;;;;;;0.93;0.87;;;;;;;21.60;100.00;-21266.47;5036413;28;21016;-74
2021/08/05 08:22:06;;;;;;;0.80;0.70;;;;;;;21.77;100.00;-21270.97;5053476;28;20459;-73
2021/08/05 08:24:34;;;;;;;0.80;0.77;;;;;;;21.78;100.00;-21271.09;5037680;28;20468;-74
2021/08/05 08:27:03;;;;;;;0.80;0.70;;;;;;;21.76;100.00;-21270.56;5055190;28;20860;-74
2021/08/05 08:29:31;;;;;;;0.73;0.67;;;;;;;21.74;100.00;-21270.16;5037740;28;20887;-74
2021/08/05 08:31:59;;;;;;;0.70;0.70;;;;;;;21.92;100.00;-21274.94;5054208;28;20416;-73
2021/08/05 08:34:29;;;;;;;0.70;0.60;;;;;;;22.13;100.00;-21280.66;5037683;28;20445;-74
2021/08/05 08:36:57;;;;;;;0.80;0.60;;;;;;;22.57;100.00;-21292.38;5054532;28;20558;-73
2021/08/05 08:39:24;;;;;;;0.70;0.60;;;;;;;22.41;100.00;-21288.00;5054748;28;20498;-73
2021/08/05 08:41:53;;;;;;;0.70;0.60;;;;;;;22.53;100.00;-21291.28;5036034;28;20543;-73
2021/08/05 08:44:22;;;;;;;0.70;0.60;;;;;;;22.92;100.00;-21301.47;5053861;28;20424;-73
2021/08/05 08:46:50;;;;;;;0.90;0.90;;;;;;;23.06;100.00;-21305.44;5053816;28;20818;-73
2021/08/05 08:49:23;;;;;;;0.80;0.70;;;;;;;23.17;100.00;-21308.16;5055184;28;20466;-74
2021/08/05 08:51:55;;;;;;;0.70;0.60;;;;;;;22.94;100.00;-21302.03;5042285;28;20793;-74
2021/08/05 08:54:23;;;;;;;0.80;0.60;;;;;;;23.27;100.00;-21310.88;5017014;28;20926;-75
2021/08/05 08:56:53;;;;;;;0.70;0.57;;;;;;;23.29;100.00;-21311.41;5033385;28;20468;-74
2021/08/05 08:59:22;;;;;;;0.70;0.70;;;;;;;23.36;100.00;-21313.31;5033682;28;20528;-74
2021/08/05 09:01:50;;;;;;;0.70;0.60;;;;;;;23.41;100.00;-21314.66;5033238;28;20410;-74
2021/08/05 09:04:20;;;;;;;0.70;0.60;;;;;;;23.53;100.00;-21317.94;5034373;28;20428;-73
2021/08/05 09:06:48;;;;;;;0.80;0.60;;;;;;;23.21;100.00;-21309.25;5033474;28;20416;-74
2021/08/05 09:09:18;;;;;;;0.70;0.60;;;;;;;23.15;100.00;-21307.88;5032970;28;20483;-74
2021/08/05 09:11:47;;;;;;;0.70;0.60;;;;;;;22.93;100.00;-21301.88;5020508;28;20484;-74
2021/08/05 09:14:40;;;;;;;0.70;0.60;;;;;;;23.07;100.00;-21305.69;5054230;28;20771;-74
2021/08/05 09:17:17;;;;;;;0.80;0.70;;;;;;;23.12;100.00;-21307.06;5036493;28;20464;-74
2021/08/05 09:19:46;;;;;;;0.70;0.60;;;;;;;23.20;100.00;-21308.97;5036593;28;20439;-74
2021/08/05 09:22:39;;;;;;;0.70;0.60;;;;;;;22.99;100.00;-21303.53;5024557;28;20463;-74
2021/08/05 09:25:25;;;;;;;0.80;0.70;;;;;;;23.40;100.00;-21314.41;5036550;28;20452;-74
2021/08/05 09:27:57;;;;;;;0.80;0.60;;;;;;;23.92;100.00;-21328.28;5053060;28;20482;-74
2021/08/05 09:30:36;;;;;;;0.70;0.60;;;;;;;24.21;100.00;-21336.00;5036232;28;20752;-74
2021/08/05 09:33:08;;;;;;;0.70;0.50;;;;;;;23.90;100.00;-21327.72;5052522;28;20416;-74
2021/08/05 09:35:37;;;;;;;0.70;0.60;;;;;;;24.32;100.00;-21338.88;5035245;28;20532;-75
2021/08/05 09:38:22;;;;;;;0.70;0.60;;;;;;;25.34;100.00;-21365.88;5016489;28;20457;-74
2021/08/05 09:40:53;;;;;;;0.70;0.60;;;;;;;24.77;100.00;-21350.81;5032642;28;20434;-72
2021/08/05 09:43:26;;;;;;;0.70;0.50;;;;;;;25.39;100.00;-21367.34;5049411;28;20490;-75
2021/08/05 09:45:55;;;;;;;0.70;0.60;;;;;;;24.70;100.00;-21348.91;5036188;28;20428;-74
2021/08/05 09:48:41;;;;;;;0.90;0.60;;;;;;;25.80;100.00;-21378.19;5045405;28;20935;-74
2021/08/05 09:51:13;;;;;;;0.70;0.50;;;;;;;25.74;100.00;-21376.56;5047103;28;20469;-74
2021/08/05 09:53:58;;;;;;;0.70;0.50;;;;;;;25.42;100.00;-21368.03;5047319;28;20460;-72
2021/08/05 09:56:28;;;;;;;0.70;0.60;;;;;;;25.84;100.00;-21379.28;5032340;28;20465;-72
2021/08/05 09:59:10;;;;;;;0.70;0.50;;;;;;;27.16;100.00;-21414.19;5032882;28;20417;-75
2021/08/05 10:01:59;;;;;;;0.80;0.60;;;;;;;28.44;100.00;-21447.97;5032542;28;20467;-74
2021/08/05 10:04:30;;;;;;;0.70;0.50;;;;;;;28.22;100.00;-21442.31;5015555;28;20449;-74
2021/08/05 10:07:02;;;;;;;0.70;0.50;;;;;;;28.18;100.00;-21441.22;5016083;28;20433;-75
2021/08/05 10:09:31;;;;;;;0.70;0.50;;;;;;;28.89;100.00;-21460.09;5032057;28;20457;-74
2021/08/05 10:12:11;;;;;;;0.70;0.50;;;;;;;27.75;100.00;-21429.75;5032262;28;20483;-74
2021/08/05 10:14:39;;;;;;;0.70;0.50;;;;;;;28.01;100.00;-21436.63;5016023;28;20465;-72
2021/08/05 10:17:07;;;;;;;0.80;0.50;;;;;;;28.79;100.00;-21457.28;5015249;28;20834;-72
2021/08/05 10:19:37;;;;;;;0.80;0.50;;;;;;;28.96;100.00;-21461.72;5032758;28;20548;-72
2021/08/05 10:22:29;;;;;;;0.80;0.50;;;;;;;29.69;100.00;-21481.13;5032439;28;20912;-71
2021/08/05 10:24:59;;;;;;;0.70;0.50;;;;;;;29.51;100.00;-21476.41;5048008;28;21036;-72
2021/08/05 10:27:29;;;;;;;0.80;0.50;;;;;;;28.82;100.00;-21458.09;5032065;28;20449;-71
2021/08/05 10:29:57;;;;;;;0.80;0.50;;;;;;;29.63;100.00;-21479.50;5032568;28;20479;-72
2021/08/05 10:32:24;;;;;;;0.80;0.50;;;;;;;29.35;100.00;-21472.25;5048600;28;20428;-73
2021/08/05 10:34:52;;;;;;;0.80;0.50;;;;;;;29.58;100.00;-21478.16;5031852;28;20453;-72
2021/08/05 10:37:21;;;;;;;0.80;0.50;;;;;;;30.21;100.00;-21494.88;5051551;28;20463;-72
2021/08/05 10:39:49;;;;;;;0.80;0.50;;;;;;;30.62;100.00;-21505.63;5051876;28;20438;-71
2021/08/05 10:42:18;;;;;;;0.80;0.50;;;;;;;29.80;100.00;-21484.09;5043232;28;20444;-72
2021/08/05 10:44:51;;;;;;;0.80;0.50;;;;;;;28.87;100.00;-21459.56;5033204;28;20416;-72
2021/08/05 10:47:21;;;;;;;0.80;0.50;;;;;;;30.81;100.00;-21510.59;5032120;28;20406;-72
2021/08/05 10:49:51;;;;;;;0.80;0.50;;;;;;;31.33;100.00;-21524.16;5034308;28;20482;-71
2021/08/05 10:52:42;;;;;;;0.80;0.60;;;;;;;29.55;100.00;-21477.34;5046869;28;20929;-71
2021/08/05 10:55:30;;;;;;;0.80;0.50;;;;;;;30.07;100.00;-21491.22;5035134;28;20461;-72
2021/08/05 10:58:11;;;;;;;0.80;0.50;;;;;;;29.58;100.00;-21478.31;5051578;28;20451;-72
2021/08/05 11:01:05;;;;;;;0.80;0.50;;;;;;;30.12;100.00;-21492.44;5051404;28;20412;-72
2021/08/05 11:03:42;;;;;;;0.80;0.50;;;;;;;30.46;100.00;-21501.31;5045698;28;20444;-71
2021/08/05 11:06:34;;;;;;;0.80;0.50;;;;;;;30.23;100.00;-21495.41;5015421;28;20555;-74
2021/08/05 11:09:27;;;;;;;0.80;0.50;;;;;;;30.50;100.00;-21502.41;5031294;28;20465;-71
2021/08/05 11:12:17;;;;;;;0.80;0.50;;;;;;;30.56;100.00;-21504.13;5024077;28;20448;-72
2021/08/05 11:14:44;;;;;;;0.80;0.50;;;;;;;30.52;100.00;-21503.06;5031052;28;20527;-72
2021/08/05 11:17:13;;;;;;;0.80;0.50;;;;;;;28.37;100.00;-21446.34;5043485;28;20555;-72
2021/08/05 11:19:42;;;;;;;1.00;0.70;;;;;;;27.10;100.00;-21412.56;5050726;28;20416;-74
2021/08/05 11:22:49;;;;;;;0.80;0.50;;;;;;;27.88;100.00;-21433.25;5037617;28;20461;-75
2021/08/05 11:25:19;;;;;;;0.90;0.70;;;;;;;29.41;100.00;-21473.59;5031392;28;20819;-73
2021/08/05 11:28:21;;;;;;;0.70;0.50;;;;;;;30.27;100.00;-21496.47;5031639;28;20826;-74
2021/08/05 11:30:56;;;;;;;0.70;0.50;;;;;;;27.63;100.00;-21426.63;5015415;28;20437;-73
2021/08/05 11:34:00;;;;;;;0.70;0.50;;;;;;;26.17;100.00;-21388.09;5031262;28;20429;-74
2021/08/05 11:36:42;;;;;;;0.70;0.50;;;;;;;26.55;100.00;-21397.97;5030665;28;21069;-74
2021/08/05 11:39:13;;;;;;;0.70;0.50;;;;;;;27.44;100.00;-21421.63;5014489;28;20465;-73